Terminal Aerodrome Forecast
Issued by NWS

Home | Current Version | Previous Version | Text Only | Print | Product List | Glossary On
Versions: 1 2 3 4 5 6 7 8 9 10 11 12 13 14 15 16
752
FTAK31 PAJN 250527
TAFAYA
TAF
PAYA 250527Z 2506/2606 34003KT P6SM VCSH SCT025 OVC060
      TEMPO 2506/2510 SCT007 BKN012 OVC030
     FM251000 00000KT P6SM OVC015
     FM251400 VRB03KT P6SM BKN040 BKN120
     FM251800 26006KT P6SM BKN060 OVC080
     FM260000 26006KT P6SM SCT015 BKN030 OVC050
      AMD LTD TO CLD VIS AND WIND=

USA.gov is the U.S. government's official web portal to all federal, state and local government web resources and services.